CheckWX is a tool to help pilots better visualize weather data.  It is not intended as a substitute for an official pre-flight weather briefing.

11:57:34 UTC

KBCB TAF
Virginia Tech / Montgomery Executive Airport
Blacksburg, Virginia, USA
KBCB 031120Z 0312/0412 28007KT P6SM SKC WS020/33035KT FM031400 32012G24KT P6SM SKC FM032200 31010KT P6SM SKC FM040200 31007KT P6SM SKC FM040500 30004KT P6SM SKC

Apr-3@
12:00 UTC

Apr-3 @ 12:00 UTC

Apr-3@
14:00 UTC

Apr-3 @ 14:00 UTC

TAF KBCB 031120Z 0312/0412 28007KT P6SM SKC WS020/33035KT

Expired

Wind
  • 280° at 7 KTS
Cloud Levels
  • Clear skies

Apr-3@
14:00 UTC

Apr-3 @ 14:00 UTC

Apr-3@
22:00 UTC

Apr-3 @ 22:00 UTC

FM031400 32012G24KT P6SM SKC

Expired

Wind
  • 320° at 12 KTS
  • {Gusting to 24 KTS
Cloud Levels
  • Clear skies

Apr-3@
22:00 UTC

Apr-3 @ 22:00 UTC

Apr-4@
02:00 UTC

Apr-4 @ 02:00 UTC

FM032200 31010KT P6SM SKC

Expired

Wind
  • 310° at 10 KTS
Cloud Levels
  • Clear skies

Apr-4@
02:00 UTC

Apr-4 @ 02:00 UTC

Apr-4@
05:00 UTC

Apr-4 @ 05:00 UTC

FM040200 31007KT P6SM SKC

Expired

Wind
  • 310° at 7 KTS
Cloud Levels
  • Clear skies

Apr-4@
05:00 UTC

Apr-4 @ 05:00 UTC

Apr-4@
12:00 UTC

Apr-4 @ 12:00 UTC

FM040500 30004KT P6SM SKC

From

From Standard forecast or significant change

Wind
  • 300° at 4 KTS
Cloud Levels
  • Clear skies